createdAt,value
2018-06-03T00:00:20.048Z,20.20
2018-06-03T00:02:46.665Z,20.10
2018-06-03T00:05:12.926Z,20.20
2018-06-03T00:07:39.530Z,20.10
2018-06-03T00:10:06.399Z,20.10
2018-06-03T00:12:32.991Z,20.00
2018-06-03T00:14:59.224Z,20.00
2018-06-03T00:17:25.441Z,20.00
2018-06-03T00:19:51.653Z,19.90
2018-06-03T00:22:22.453Z,19.90
2018-06-03T00:24:49.055Z,19.90
2018-06-03T00:27:15.296Z,19.90
2018-06-03T00:29:41.540Z,19.80
2018-06-03T00:32:08.146Z,19.80
2018-06-03T00:34:36.470Z,19.80
2018-06-03T00:37:03.073Z,19.60
2018-06-03T00:39:29.293Z,19.60
2018-06-03T00:41:55.508Z,19.60
2018-06-03T00:44:21.775Z,19.60
2018-06-03T00:46:48.375Z,19.60
2018-06-03T00:49:14.602Z,19.60
2018-06-03T00:51:40.848Z,19.60
2018-06-03T00:54:07.104Z,19.50
2018-06-03T00:56:45.914Z,19.40
2018-06-03T00:59:12.182Z,19.50
2018-06-03T01:01:38.412Z,19.50
2018-06-03T01:04:04.667Z,19.50
2018-06-03T01:06:30.947Z,19.40
2018-06-03T01:08:57.568Z,19.40
2018-06-03T01:11:23.801Z,19.40
2018-06-03T01:13:50.424Z,19.30
2018-06-03T01:16:17.477Z,19.40
2018-06-03T01:18:43.692Z,19.30
2018-06-03T01:21:09.998Z,19.30
2018-06-03T01:23:36.200Z,19.30
2018-06-03T01:26:02.471Z,19.20
2018-06-03T01:28:28.748Z,19.20
2018-06-03T01:30:54.959Z,19.20
2018-06-03T01:35:54.446Z,19.20
2018-06-03T01:38:21.275Z,19.20
2018-06-03T01:40:47.508Z,19.20
2018-06-03T01:43:13.761Z,19.20
2018-06-03T01:45:39.993Z,19.20
2018-06-03T01:48:06.570Z,19.20
2018-06-03T01:50:32.812Z,19.20
2018-06-03T01:52:59.052Z,19.10
2018-06-03T01:55:25.291Z,19.10
2018-06-03T01:57:51.540Z,19.10
2018-06-03T02:00:17.766Z,19.10
2018-06-03T02:02:43.992Z,19.00
2018-06-03T02:05:10.208Z,19.00
2018-06-03T02:07:36.425Z,19.00
2018-06-03T02:10:02.678Z,19.00
2018-06-03T02:12:28.943Z,18.90
2018-06-03T02:14:55.173Z,18.90
2018-06-03T02:17:21.426Z,18.90
2018-06-03T02:19:47.684Z,18.90
2018-06-03T02:22:13.900Z,18.90
2018-06-03T02:24:40.127Z,18.90
2018-06-03T02:27:06.377Z,18.90
2018-06-03T02:29:32.655Z,18.90
2018-06-03T02:31:58.870Z,18.80
2018-06-03T02:34:25.473Z,18.70
2018-06-03T02:36:52.713Z,18.80
2018-06-03T02:39:18.947Z,18.70
2018-06-03T02:41:45.185Z,18.70
2018-06-03T02:44:11.430Z,18.60
2018-06-03T02:46:38.056Z,18.60
2018-06-03T02:49:04.309Z,18.60
2018-06-03T02:51:30.581Z,18.60
2018-06-03T02:53:56.791Z,18.50
2018-06-03T02:56:23.022Z,18.50
2018-06-03T02:58:49.261Z,18.50
2018-06-03T03:01:15.463Z,18.60
2018-06-03T03:03:41.707Z,18.50
2018-06-03T03:06:07.973Z,18.40
2018-06-03T03:08:35.709Z,18.30
2018-06-03T03:14:46.883Z,18.30
2018-06-03T03:17:18.364Z,18.20
2018-06-03T03:19:48.153Z,18.20
2018-06-03T03:22:22.001Z,18.20
2018-06-03T03:25:42.237Z,18.30
2018-06-03T03:28:37.200Z,18.20
2018-06-03T03:31:04.465Z,18.20
2018-06-03T03:33:34.109Z,18.20
2018-06-03T03:36:00.315Z,18.20
2018-06-03T03:38:26.567Z,18.20
2018-06-03T03:40:52.818Z,18.20
2018-06-03T03:43:19.023Z,18.20
2018-06-03T03:45:45.260Z,18.30
2018-06-03T03:48:11.454Z,18.30
2018-06-03T03:50:37.696Z,18.30
2018-06-03T03:53:04.831Z,18.30
2018-06-03T03:55:31.402Z,18.30
2018-06-03T03:57:57.655Z,18.20
2018-06-03T04:00:23.860Z,18.30
2018-06-03T04:02:50.086Z,18.30
2018-06-03T04:05:16.324Z,18.30
2018-06-03T04:07:42.551Z,18.30
2018-06-03T04:10:08.784Z,18.30
2018-06-03T04:12:35.015Z,18.30
2018-06-03T04:15:01.228Z,18.30
2018-06-03T04:17:27.434Z,18.30
2018-06-03T04:19:53.704Z,18.30
2018-06-03T04:22:19.936Z,18.30
2018-06-03T04:24:47.072Z,18.30
2018-06-03T04:27:13.303Z,18.40
2018-06-03T04:29:39.542Z,18.40
2018-06-03T04:32:05.751Z,18.40
2018-06-03T04:34:32.022Z,18.40
2018-06-03T04:36:58.221Z,18.40
2018-06-03T04:39:24.458Z,18.50
2018-06-03T04:41:50.713Z,18.50
2018-06-03T04:44:16.918Z,18.50
2018-06-03T04:46:43.139Z,18.50
2018-06-03T04:49:09.359Z,18.60
2018-06-03T04:51:35.577Z,18.60
2018-06-03T04:54:01.834Z,18.60
2018-06-03T04:56:28.049Z,18.60
2018-06-03T04:58:54.263Z,18.70
2018-06-03T05:01:20.495Z,18.80
2018-06-03T05:03:46.776Z,18.80
2018-06-03T05:06:13.413Z,19.00
2018-06-03T05:08:39.644Z,19.00
2018-06-03T05:11:05.885Z,19.00
2018-06-03T05:13:32.108Z,19.10
2018-06-03T05:15:58.347Z,19.20
2018-06-03T05:18:24.557Z,19.20
2018-06-03T05:20:50.766Z,19.20
2018-06-03T05:25:49.807Z,19.30
2018-06-03T05:28:16.034Z,19.30
2018-06-03T05:30:42.310Z,19.40
2018-06-03T05:33:08.568Z,19.40
2018-06-03T05:35:35.188Z,19.60
2018-06-03T05:38:01.417Z,19.60
2018-06-03T05:40:27.690Z,19.60
2018-06-03T05:43:00.920Z,19.70
2018-06-03T05:45:27.185Z,19.70
2018-06-03T05:47:56.447Z,19.80
2018-06-03T05:50:22.696Z,19.80
2018-06-03T05:52:55.741Z,19.90
2018-06-03T05:55:21.972Z,20.00
2018-06-03T05:57:48.249Z,20.00
2018-06-03T06:00:14.503Z,20.10
2018-06-03T06:02:41.120Z,20.20
2018-06-03T06:05:07.384Z,20.20
2018-06-03T06:07:33.654Z,20.30
2018-06-03T06:09:59.910Z,20.30
2018-06-03T06:12:26.120Z,20.40
2018-06-03T06:14:55.288Z,20.40
2018-06-03T06:17:49.284Z,20.50
2018-06-03T06:20:16.855Z,20.60
2018-06-03T06:22:44.446Z,20.70
2018-06-03T06:25:11.957Z,20.70
2018-06-03T06:27:40.223Z,20.70
2018-06-03T06:30:09.116Z,20.80
2018-06-03T06:32:36.727Z,20.80
2018-06-03T06:35:04.284Z,20.90
2018-06-03T06:37:31.831Z,20.90
2018-06-03T06:40:00.475Z,21.00
2018-06-03T06:42:28.052Z,21.00
2018-06-03T06:44:55.577Z,21.10
2018-06-03T06:47:23.217Z,21.10
2018-06-03T06:49:50.773Z,21.20
2018-06-03T06:52:19.048Z,21.20
2018-06-03T06:54:47.235Z,21.30
2018-06-03T06:59:42.264Z,21.30
2018-06-03T07:02:09.865Z,21.40
2018-06-03T07:04:38.061Z,21.50
2018-06-03T07:07:12.426Z,21.50
2018-06-03T07:09:39.993Z,21.60
2018-06-03T07:12:07.568Z,21.60
2018-06-03T07:14:35.209Z,21.70
2018-06-03T07:17:02.834Z,21.80
2018-06-03T07:19:30.395Z,21.80
2018-06-03T07:21:58.010Z,21.80
2018-06-03T07:24:26.013Z,21.90
2018-06-03T07:26:53.702Z,21.90
2018-06-03T07:29:21.357Z,22.00
2018-06-03T07:31:48.971Z,22.10
2018-06-03T07:34:16.620Z,22.10
2018-06-03T07:36:44.224Z,22.20
2018-06-03T07:39:11.933Z,22.20
2018-06-03T07:41:39.579Z,22.30
2018-06-03T07:44:07.183Z,22.30
2018-06-03T07:46:34.830Z,22.40
2018-06-03T07:49:02.507Z,22.50
2018-06-03T07:51:30.113Z,22.50
2018-06-03T07:56:25.142Z,22.70
2018-06-03T07:58:52.812Z,22.70
2018-06-03T08:01:20.364Z,22.80
2018-06-03T08:03:48.138Z,22.80
2018-06-03T08:06:15.772Z,22.90
2018-06-03T08:08:43.441Z,23.00
2018-06-03T08:11:11.089Z,23.10
2018-06-03T08:13:38.753Z,23.10
2018-06-03T08:16:06.409Z,23.10
2018-06-03T08:18:33.959Z,23.10
2018-06-03T08:21:02.414Z,23.20
2018-06-03T08:23:30.021Z,23.30
2018-06-03T08:25:58.562Z,23.40
2018-06-03T08:28:26.159Z,23.40
2018-06-03T08:30:53.716Z,23.50
2018-06-03T08:35:48.814Z,23.60
2018-06-03T08:38:16.397Z,23.70
2018-06-03T08:40:44.021Z,23.70
2018-06-03T08:43:11.652Z,23.80
2018-06-03T08:45:39.207Z,23.90
2018-06-03T08:48:06.835Z,23.90
2018-06-03T08:50:34.547Z,24.00
2018-06-03T08:53:02.088Z,24.00
2018-06-03T08:55:29.643Z,24.10
2018-06-03T08:57:57.324Z,24.20
2018-06-03T09:00:25.008Z,24.20
2018-06-03T09:02:52.651Z,24.20
2018-06-03T09:05:20.234Z,24.30
2018-06-03T09:07:47.792Z,24.40
2018-06-03T09:10:15.376Z,24.50
2018-06-03T09:12:43.709Z,24.50
2018-06-03T09:15:11.903Z,24.60
2018-06-03T09:17:39.518Z,24.60
2018-06-03T09:20:07.133Z,24.70
2018-06-03T09:22:34.731Z,24.60
2018-06-03T09:25:02.430Z,24.70
2018-06-03T09:27:30.127Z,24.80
2018-06-03T09:29:57.781Z,24.90
2018-06-03T09:32:25.460Z,25.00
2018-06-03T09:34:53.044Z,25.10
2018-06-03T09:37:20.615Z,25.10
2018-06-03T09:39:48.272Z,25.10
2018-06-03T09:42:20.448Z,25.20
2018-06-03T09:44:48.101Z,25.30
2018-06-03T09:47:16.329Z,25.30
2018-06-03T09:49:43.993Z,25.50
2018-06-03T09:52:11.643Z,25.50
2018-06-03T09:54:39.765Z,25.50
2018-06-03T09:57:08.352Z,25.70
2018-06-03T09:59:35.924Z,25.70
2018-06-03T10:02:03.535Z,25.90
2018-06-03T10:04:31.096Z,25.90
2018-06-03T10:06:58.664Z,26.00
2018-06-03T10:09:26.238Z,26.20
2018-06-03T10:11:53.878Z,26.30
2018-06-03T10:16:55.753Z,26.50
2018-06-03T10:19:23.363Z,26.60
2018-06-03T10:21:51.221Z,26.60
2018-06-03T10:24:18.883Z,26.70
2018-06-03T10:26:47.125Z,26.80
2018-06-03T10:29:14.689Z,26.90
2018-06-03T10:31:42.395Z,27.00
2018-06-03T10:34:10.155Z,27.10
2018-06-03T10:36:38.709Z,27.30
2018-06-03T10:39:06.902Z,27.30
2018-06-03T10:41:34.504Z,27.50
2018-06-03T10:44:02.084Z,27.70
2018-06-03T10:46:29.869Z,27.80
2018-06-03T10:48:57.469Z,27.90
2018-06-03T10:51:25.109Z,27.90
2018-06-03T10:53:52.697Z,27.90
2018-06-03T10:56:20.294Z,28.00
2018-06-03T11:01:15.371Z,27.90
2018-06-03T11:03:42.903Z,27.80
2018-06-03T11:06:10.498Z,27.60
2018-06-03T11:08:43.146Z,27.40
2018-06-03T11:11:10.748Z,27.40
2018-06-03T11:13:38.400Z,27.60
2018-06-03T11:16:05.982Z,27.70
2018-06-03T11:18:33.633Z,27.90
2018-06-03T11:21:01.246Z,28.30
2018-06-03T11:23:28.887Z,28.60
2018-06-03T11:25:56.509Z,29.00
2018-06-03T11:32:23.765Z,29.90
2018-06-03T11:34:51.334Z,30.30
2018-06-03T11:37:18.962Z,30.60
2018-06-03T11:39:46.496Z,30.70
2018-06-03T11:42:14.094Z,31.20
2018-06-03T11:44:41.643Z,31.60
2018-06-03T11:47:09.268Z,31.90
2018-06-03T11:49:36.912Z,32.20
2018-06-03T11:52:04.532Z,32.30
2018-06-03T11:54:32.724Z,32.50
2018-06-03T11:57:03.224Z,32.80
2018-06-03T11:59:42.476Z,33.30
2018-06-03T12:02:10.828Z,33.60
2018-06-03T12:04:38.422Z,33.80
2018-06-03T12:07:06.027Z,34.00
2018-06-03T12:09:33.663Z,34.30
2018-06-03T12:12:01.243Z,34.40
2018-06-03T12:14:28.843Z,34.60
2018-06-03T12:16:56.742Z,34.80
2018-06-03T12:19:25.061Z,35.00
2018-06-03T12:21:52.706Z,35.00
2018-06-03T12:24:20.315Z,34.90
2018-06-03T12:26:54.679Z,34.40
2018-06-03T12:29:22.295Z,33.50
2018-06-03T12:31:49.902Z,32.90
2018-06-03T12:34:18.572Z,32.40
2018-06-03T12:36:46.292Z,32.00
2018-06-03T12:39:13.904Z,32.10
2018-06-03T12:41:41.520Z,32.20
2018-06-03T12:44:09.168Z,32.20
2018-06-03T12:46:36.768Z,32.10
2018-06-03T12:49:04.361Z,32.10
2018-06-03T12:51:32.152Z,32.10
2018-06-03T12:53:59.786Z,32.80
2018-06-03T12:56:27.397Z,33.80
2018-06-03T12:58:54.995Z,34.70
2018-06-03T13:01:22.543Z,35.20
2018-06-03T13:03:50.148Z,35.20
2018-06-03T13:06:18.271Z,34.80
2018-06-03T13:08:45.880Z,34.40
2018-06-03T13:11:14.084Z,34.00
2018-06-03T13:13:41.710Z,33.80
2018-06-03T13:16:09.269Z,33.90
2018-06-03T13:18:36.816Z,34.30
2018-06-03T13:21:04.407Z,34.70
2018-06-03T13:23:33.344Z,35.30
2018-06-03T13:26:01.542Z,35.80
2018-06-03T13:28:31.081Z,36.20
2018-06-03T13:31:00.940Z,36.70
2018-06-03T13:33:28.519Z,37.50
2018-06-03T13:36:00.825Z,38.10
2018-06-03T13:38:31.477Z,38.60
2018-06-03T13:40:59.786Z,39.00
2018-06-03T13:43:28.127Z,39.30
2018-06-03T13:45:57.665Z,39.50
2018-06-03T13:48:25.229Z,39.70
2018-06-03T13:50:55.831Z,39.80
2018-06-03T13:53:30.356Z,40.00
2018-06-03T13:56:01.312Z,40.30
2018-06-03T13:58:33.966Z,40.70
2018-06-03T14:01:03.345Z,41.00
2018-06-03T14:03:34.206Z,41.10
2018-06-03T14:06:06.143Z,40.80
2018-06-03T14:08:34.444Z,40.20
2018-06-03T14:11:02.999Z,39.70
2018-06-03T14:13:30.606Z,39.90
2018-06-03T14:15:59.213Z,40.20
2018-06-03T14:18:26.829Z,40.30
2018-06-03T14:20:54.430Z,40.30
2018-06-03T14:23:22.014Z,39.90
2018-06-03T14:25:49.587Z,39.40
2018-06-03T14:28:17.164Z,38.90
2018-06-03T14:30:44.790Z,38.50
2018-06-03T14:33:12.498Z,38.20
2018-06-03T14:35:40.097Z,38.10
2018-06-03T14:38:08.324Z,38.00
2018-06-03T14:40:35.905Z,37.80
2018-06-03T14:43:03.502Z,37.70
2018-06-03T14:45:31.107Z,37.80
2018-06-03T14:47:58.691Z,38.00
2018-06-03T14:50:26.320Z,38.30
2018-06-03T14:52:53.978Z,38.50
2018-06-03T14:55:21.554Z,38.80
2018-06-03T14:57:49.227Z,39.20
2018-06-03T15:00:16.766Z,39.00
2018-06-03T15:02:44.335Z,38.10
2018-06-03T15:05:11.960Z,37.00
2018-06-03T15:07:39.555Z,36.10
2018-06-03T15:12:34.676Z,34.60
2018-06-03T15:15:02.301Z,34.10
2018-06-03T15:17:30.009Z,33.50
2018-06-03T15:19:57.607Z,32.90
2018-06-03T15:22:25.292Z,32.60
2018-06-03T15:24:52.906Z,32.40
2018-06-03T15:27:20.505Z,32.20
2018-06-03T15:29:48.163Z,32.00
2018-06-03T15:32:15.820Z,31.80
2018-06-03T15:34:43.438Z,31.60
2018-06-03T15:37:11.080Z,31.40
2018-06-03T15:39:38.614Z,31.30
2018-06-03T15:42:06.391Z,31.20
2018-06-03T15:44:33.991Z,31.10
2018-06-03T15:47:01.589Z,31.20
2018-06-03T15:49:29.150Z,31.30
2018-06-03T15:51:56.751Z,31.30
2018-06-03T15:54:24.323Z,31.30
2018-06-03T15:56:51.895Z,31.20
2018-06-03T15:59:19.509Z,31.00
2018-06-03T16:01:47.115Z,30.80
2018-06-03T16:04:14.711Z,30.50
2018-06-03T16:06:42.284Z,30.40
2018-06-03T16:09:10.022Z,30.30
2018-06-03T16:11:37.563Z,30.10
2018-06-03T16:14:05.220Z,29.90
2018-06-03T16:16:32.750Z,29.80
2018-06-03T16:19:00.445Z,29.70
2018-06-03T16:21:28.060Z,29.70
2018-06-03T16:23:55.711Z,29.70
2018-06-03T16:26:23.301Z,29.70
2018-06-03T16:28:50.881Z,29.70
2018-06-03T16:31:18.499Z,29.80
2018-06-03T16:33:46.062Z,30.00
2018-06-03T16:36:13.657Z,30.10
2018-06-03T16:38:41.343Z,30.30
2018-06-03T16:41:08.939Z,30.40
2018-06-03T16:43:36.623Z,30.50
2018-06-03T16:46:04.264Z,30.50
2018-06-03T16:48:31.887Z,30.40
2018-06-03T16:50:59.587Z,30.30
2018-06-03T16:53:27.230Z,30.20
2018-06-03T16:55:54.867Z,30.00
2018-06-03T16:58:22.501Z,29.70
2018-06-03T17:00:50.820Z,29.60
2018-06-03T17:03:18.551Z,29.50
2018-06-03T17:05:46.239Z,29.30
2018-06-03T17:08:13.861Z,29.10
2018-06-03T17:10:47.184Z,28.90
2018-06-03T17:13:14.833Z,28.80
2018-06-03T17:15:42.442Z,28.70
2018-06-03T17:18:10.101Z,28.60
2018-06-03T17:20:37.796Z,28.60
2018-06-03T17:23:05.346Z,28.50
2018-06-03T17:25:32.941Z,28.50
2018-06-03T17:28:00.530Z,28.40
2018-06-03T17:30:28.161Z,28.20
2018-06-03T17:32:55.752Z,28.10
2018-06-03T17:35:24.380Z,28.00
2018-06-03T17:37:52.011Z,28.00
2018-06-03T17:40:19.671Z,28.00
2018-06-03T17:42:47.267Z,27.90
2018-06-03T17:45:14.851Z,27.80
2018-06-03T17:47:42.850Z,27.70
2018-06-03T17:50:10.769Z,27.50
2018-06-03T17:52:38.415Z,27.40
2018-06-03T17:55:06.096Z,27.40
2018-06-03T17:57:33.688Z,27.30
2018-06-03T18:00:01.672Z,27.20
2018-06-03T18:02:29.333Z,27.00
2018-06-03T18:04:57.090Z,26.90
2018-06-03T18:07:24.720Z,26.80
2018-06-03T18:09:52.342Z,26.70
2018-06-03T18:12:20.092Z,26.60
2018-06-03T18:14:47.840Z,26.40
2018-06-03T18:17:15.577Z,26.20
2018-06-03T18:19:43.206Z,26.00
2018-06-03T18:22:10.934Z,25.80
2018-06-03T18:24:38.545Z,25.70
2018-06-03T18:27:06.220Z,25.60
2018-06-03T18:29:33.910Z,25.50
2018-06-03T18:32:01.675Z,25.30
2018-06-03T18:36:57.162Z,25.10
2018-06-03T18:39:25.589Z,25.00
2018-06-03T18:41:53.277Z,24.90
2018-06-03T18:44:21.067Z,24.80
2018-06-03T18:46:48.737Z,24.70
2018-06-03T18:49:16.982Z,24.60
2018-06-03T18:51:44.794Z,24.50
2018-06-03T18:54:12.609Z,24.40
2018-06-03T18:56:40.329Z,24.40
2018-06-03T19:01:35.637Z,24.20
2018-06-03T19:04:03.375Z,24.10
2018-06-03T19:06:31.284Z,24.10
2018-06-03T19:08:59.037Z,24.00
2018-06-03T19:11:26.782Z,23.90
2018-06-03T19:13:54.509Z,23.80
2018-06-03T19:16:22.217Z,23.70
2018-06-03T19:18:49.993Z,23.70
2018-06-03T19:21:17.634Z,23.60
2018-06-03T19:23:45.232Z,23.50
2018-06-03T19:26:12.960Z,23.40
2018-06-03T19:28:40.994Z,23.30
2018-06-03T19:31:08.859Z,23.30
2018-06-03T19:33:36.643Z,23.20
2018-06-03T19:36:04.859Z,23.10
2018-06-03T19:38:32.673Z,23.00
2018-06-03T19:41:00.414Z,22.90
2018-06-03T19:43:28.074Z,22.90
2018-06-03T19:45:55.760Z,22.90
2018-06-03T19:48:23.487Z,22.80
2018-06-03T19:50:51.184Z,22.80
2018-06-03T19:53:18.854Z,22.80
2018-06-03T19:55:46.723Z,22.80
2018-06-03T19:58:15.132Z,22.70
2018-06-03T20:00:42.790Z,22.70
2018-06-03T20:03:10.501Z,22.60
2018-06-03T20:05:38.198Z,22.60
2018-06-03T20:08:05.813Z,22.60
2018-06-03T20:10:33.569Z,22.50
2018-06-03T20:13:01.304Z,22.50
2018-06-03T20:15:28.944Z,22.50
2018-06-03T20:17:58.835Z,22.30
2018-06-03T20:20:26.559Z,22.30
2018-06-03T20:22:54.169Z,22.20
2018-06-03T20:25:21.934Z,22.10
2018-06-03T20:27:49.665Z,22.00
2018-06-03T20:30:17.341Z,22.00
2018-06-03T20:32:45.071Z,21.90
2018-06-03T20:35:12.765Z,21.90
2018-06-03T20:37:40.557Z,21.80
2018-06-03T20:40:08.369Z,21.70
2018-06-03T20:42:36.165Z,21.70
2018-06-03T20:45:03.742Z,21.60
2018-06-03T20:47:31.432Z,21.50
2018-06-03T20:49:59.078Z,21.50
2018-06-03T20:52:26.711Z,21.40
2018-06-03T20:54:54.382Z,21.30
2018-06-03T20:57:22.044Z,21.20
2018-06-03T20:59:49.782Z,21.20
2018-06-03T21:02:17.439Z,21.20
2018-06-03T21:04:45.127Z,21.00
2018-06-03T21:07:12.806Z,21.00
2018-06-03T21:09:41.134Z,21.00
2018-06-03T21:12:08.839Z,21.00
2018-06-03T21:14:36.456Z,21.00
2018-06-03T21:17:04.128Z,21.00
2018-06-03T21:19:31.767Z,20.80
2018-06-03T21:21:59.320Z,20.70
2018-06-03T21:24:26.940Z,20.70
2018-06-03T21:26:54.490Z,20.80
2018-06-03T21:29:22.083Z,20.80
2018-06-03T21:31:49.639Z,20.80
2018-06-03T21:34:17.317Z,20.70
2018-06-03T21:36:44.916Z,20.70
2018-06-03T21:39:12.629Z,20.70
2018-06-03T21:41:40.911Z,20.60
2018-06-03T21:44:09.457Z,20.50
2018-06-03T21:46:37.025Z,20.50
2018-06-03T21:49:04.761Z,20.40
2018-06-03T21:51:32.366Z,20.30
2018-06-03T21:54:00.056Z,20.40
2018-06-03T21:56:27.699Z,20.30
2018-06-03T21:58:55.329Z,20.40
2018-06-03T22:01:22.911Z,20.40
2018-06-03T22:03:50.562Z,20.40
2018-06-03T22:06:18.097Z,20.40
2018-06-03T22:08:45.674Z,20.40
2018-06-03T22:11:13.790Z,20.40
2018-06-03T22:13:41.352Z,20.30
2018-06-03T22:16:08.968Z,20.30
2018-06-03T22:18:36.598Z,20.30
2018-06-03T22:21:04.886Z,20.20
2018-06-03T22:23:32.445Z,20.10
2018-06-03T22:26:00.082Z,20.00
2018-06-03T22:28:27.667Z,20.00
2018-06-03T22:30:55.186Z,20.00
2018-06-03T22:33:22.820Z,19.80
2018-06-03T22:35:51.272Z,19.80
2018-06-03T22:38:19.847Z,19.80
2018-06-03T22:40:47.997Z,19.80
2018-06-03T22:43:15.563Z,19.80
2018-06-03T22:45:43.156Z,19.70
2018-06-03T22:48:10.749Z,19.70
2018-06-03T22:50:38.373Z,19.60
2018-06-03T22:53:06.395Z,19.60
2018-06-03T22:55:33.963Z,19.50
2018-06-03T22:58:02.181Z,19.50
2018-06-03T23:00:31.203Z,19.50
2018-06-03T23:03:04.479Z,19.40
2018-06-03T23:05:32.914Z,19.40
2018-06-03T23:08:01.477Z,19.30
2018-06-03T23:10:29.800Z,19.30
2018-06-03T23:12:57.360Z,19.40
2018-06-03T23:15:26.591Z,19.40
2018-06-03T23:17:54.181Z,19.40
2018-06-03T23:22:52.366Z,19.30
2018-06-03T23:25:22.990Z,19.30
2018-06-03T23:27:51.223Z,19.30
2018-06-03T23:30:19.411Z,19.30
2018-06-03T23:32:48.055Z,19.30
2018-06-03T23:35:17.275Z,19.30
2018-06-03T23:37:47.739Z,19.20
2018-06-03T23:40:15.367Z,19.20
2018-06-03T23:42:42.904Z,19.20
2018-06-03T23:45:10.491Z,19.20
2018-06-03T23:47:39.047Z,19.10
2018-06-03T23:50:06.586Z,19.10
2018-06-03T23:52:34.167Z,19.00
2018-06-03T23:55:01.747Z,19.00
2018-06-03T23:57:29.299Z,19.00
2018-06-03T23:59:56.851Z,18.90
